sensor_id;sensor_type;location;lat;lon;timestamp;pressure;altitude;pressure_sealevel;temperature;humidity
17593;BME280;8915;51.760;14.300;2023-07-16T00:02:18;100117.22;;;26.27;42.78
17593;BME280;8915;51.760;14.300;2023-07-16T00:04:44;100105.59;;;26.18;42.07
17593;BME280;8915;51.760;14.300;2023-07-16T00:07:10;100095.47;;;26.09;42.65
17593;BME280;8915;51.760;14.300;2023-07-16T00:09:38;100094.19;;;26.01;42.46
17593;BME280;8915;51.760;14.300;2023-07-16T00:12:05;100092.53;;;25.95;43.71
17593;BME280;8915;51.760;14.300;2023-07-16T00:14:31;100115.13;;;25.88;44.15
17593;BME280;8915;51.760;14.300;2023-07-16T00:16:58;100108.13;;;25.78;45.00
17593;BME280;8915;51.760;14.300;2023-07-16T00:19:24;100110.03;;;25.69;45.40
17593;BME280;8915;51.760;14.300;2023-07-16T00:21:50;100109.63;;;25.58;45.45
17593;BME280;8915;51.760;14.300;2023-07-16T00:24:17;100118.09;;;25.47;45.88
17593;BME280;8915;51.760;14.300;2023-07-16T00:26:44;100132.69;;;25.37;46.36
17593;BME280;8915;51.760;14.300;2023-07-16T00:29:11;100136.50;;;25.27;47.22
17593;BME280;8915;51.760;14.300;2023-07-16T00:31:37;100151.84;;;25.18;47.00
17593;BME280;8915;51.760;14.300;2023-07-16T00:34:03;100156.38;;;25.08;47.62
17593;BME280;8915;51.760;14.300;2023-07-16T00:36:30;100157.47;;;24.98;47.91
17593;BME280;8915;51.760;14.300;2023-07-16T00:38:56;100162.75;;;24.89;48.14
17593;BME280;8915;51.760;14.300;2023-07-16T00:41:22;100166.09;;;24.81;48.70
17593;BME280;8915;51.760;14.300;2023-07-16T00:43:51;100167.06;;;24.74;49.33
17593;BME280;8915;51.760;14.300;2023-07-16T00:46:19;100172.22;;;24.69;49.17
17593;BME280;8915;51.760;14.300;2023-07-16T00:48:45;100173.09;;;24.66;49.39
17593;BME280;8915;51.760;14.300;2023-07-16T00:51:12;100190.56;;;24.61;49.78
17593;BME280;8915;51.760;14.300;2023-07-16T00:53:40;100245.59;;;24.51;52.39
17593;BME280;8915;51.760;14.300;2023-07-16T00:56:07;100276.44;;;24.38;51.22
17593;BME280;8915;51.760;14.300;2023-07-16T00:58:34;100323.41;;;24.40;50.04
17593;BME280;8915;51.760;14.300;2023-07-16T01:01:02;100360.34;;;24.43;50.61
17593;BME280;8915;51.760;14.300;2023-07-16T01:03:28;100389.28;;;24.42;49.17
17593;BME280;8915;51.760;14.300;2023-07-16T01:06:01;100386.06;;;24.48;51.27
17593;BME280;8915;51.760;14.300;2023-07-16T01:08:32;100392.66;;;24.47;51.28
17593;BME280;8915;51.760;14.300;2023-07-16T01:10:59;100391.81;;;24.50;51.08
17593;BME280;8915;51.760;14.300;2023-07-16T01:13:26;100398.47;;;24.61;51.08
17593;BME280;8915;51.760;14.300;2023-07-16T01:15:54;100401.53;;;24.63;51.86
17593;BME280;8915;51.760;14.300;2023-07-16T01:18:22;100403.97;;;24.74;51.82
17593;BME280;8915;51.760;14.300;2023-07-16T01:20:48;100406.25;;;24.75;51.69
17593;BME280;8915;51.760;14.300;2023-07-16T01:23:26;100411.22;;;24.77;51.61
17593;BME280;8915;51.760;14.300;2023-07-16T01:26:05;100428.75;;;24.85;51.29
17593;BME280;8915;51.760;14.300;2023-07-16T01:31:32;100435.19;;;24.91;51.17
17593;BME280;8915;51.760;14.300;2023-07-16T01:34:01;100432.78;;;24.93;50.86
17593;BME280;8915;51.760;14.300;2023-07-16T01:36:29;100430.34;;;24.98;50.94
17593;BME280;8915;51.760;14.300;2023-07-16T01:38:56;100446.56;;;24.98;50.96
17593;BME280;8915;51.760;14.300;2023-07-16T01:41:23;100459.28;;;24.98;51.16
17593;BME280;8915;51.760;14.300;2023-07-16T01:43:50;100466.47;;;25.04;51.24
17593;BME280;8915;51.760;14.300;2023-07-16T01:46:17;100472.19;;;25.06;51.62
17593;BME280;8915;51.760;14.300;2023-07-16T01:48:45;100457.50;;;25.07;51.52
17593;BME280;8915;51.760;14.300;2023-07-16T01:51:11;100443.97;;;25.07;51.45
17593;BME280;8915;51.760;14.300;2023-07-16T01:53:39;100440.53;;;25.07;51.12
17593;BME280;8915;51.760;14.300;2023-07-16T01:56:05;100443.16;;;25.10;50.87
17593;BME280;8915;51.760;14.300;2023-07-16T01:58:32;100441.94;;;25.11;50.77
17593;BME280;8915;51.760;14.300;2023-07-16T02:00:58;100444.34;;;25.09;50.58
17593;BME280;8915;51.760;14.300;2023-07-16T02:03:25;100435.56;;;25.05;50.75
17593;BME280;8915;51.760;14.300;2023-07-16T02:05:52;100432.84;;;25.05;50.52
17593;BME280;8915;51.760;14.300;2023-07-16T02:08:19;100432.44;;;25.07;50.31
17593;BME280;8915;51.760;14.300;2023-07-16T02:10:47;100412.44;;;25.04;50.27
17593;BME280;8915;51.760;14.300;2023-07-16T02:13:14;100424.19;;;24.98;50.52
17593;BME280;8915;51.760;14.300;2023-07-16T02:15:40;100409.06;;;25.00;50.70
17593;BME280;8915;51.760;14.300;2023-07-16T02:18:06;100429.41;;;24.89;50.79
17593;BME280;8915;51.760;14.300;2023-07-16T02:20:34;100425.97;;;24.88;51.12
17593;BME280;8915;51.760;14.300;2023-07-16T02:23:02;100419.81;;;24.88;51.13
17593;BME280;8915;51.760;14.300;2023-07-16T02:25:28;100415.59;;;24.87;51.37
17593;BME280;8915;51.760;14.300;2023-07-16T02:27:54;100400.63;;;24.82;50.40
17593;BME280;8915;51.760;14.300;2023-07-16T02:30:21;100411.53;;;24.79;50.46
17593;BME280;8915;51.760;14.300;2023-07-16T02:32:48;100410.44;;;24.76;50.89
17593;BME280;8915;51.760;14.300;2023-07-16T02:35:14;100390.88;;;24.72;50.61
17593;BME280;8915;51.760;14.300;2023-07-16T02:37:40;100399.84;;;24.69;50.67
17593;BME280;8915;51.760;14.300;2023-07-16T02:40:08;100402.13;;;24.71;50.78
17593;BME280;8915;51.760;14.300;2023-07-16T02:42:35;100416.38;;;24.71;51.13
17593;BME280;8915;51.760;14.300;2023-07-16T02:45:01;100422.63;;;24.68;51.21
17593;BME280;8915;51.760;14.300;2023-07-16T02:47:28;100428.13;;;24.65;51.94
17593;BME280;8915;51.760;14.300;2023-07-16T02:49:54;100415.78;;;24.64;51.50
17593;BME280;8915;51.760;14.300;2023-07-16T02:52:21;100405.34;;;24.66;51.47
17593;BME280;8915;51.760;14.300;2023-07-16T02:54:47;100417.38;;;24.61;51.84
17593;BME280;8915;51.760;14.300;2023-07-16T02:57:15;100413.59;;;24.59;51.54
17593;BME280;8915;51.760;14.300;2023-07-16T02:59:41;100411.72;;;24.56;51.44
17593;BME280;8915;51.760;14.300;2023-07-16T03:02:07;100420.34;;;24.51;51.53
17593;BME280;8915;51.760;14.300;2023-07-16T03:04:34;100421.00;;;24.55;51.24
17593;BME280;8915;51.760;14.300;2023-07-16T03:07:00;100420.75;;;24.49;51.84
17593;BME280;8915;51.760;14.300;2023-07-16T03:09:26;100419.25;;;24.48;51.94
17593;BME280;8915;51.760;14.300;2023-07-16T03:11:53;100422.69;;;24.48;51.77
17593;BME280;8915;51.760;14.300;2023-07-16T03:14:20;100419.38;;;24.41;51.40
17593;BME280;8915;51.760;14.300;2023-07-16T03:16:47;100400.84;;;24.43;51.79
17593;BME280;8915;51.760;14.300;2023-07-16T03:19:13;100414.53;;;24.36;51.58
17593;BME280;8915;51.760;14.300;2023-07-16T03:21:40;100439.31;;;24.31;52.41
17593;BME280;8915;51.760;14.300;2023-07-16T03:24:06;100455.34;;;24.38;52.97
17593;BME280;8915;51.760;14.300;2023-07-16T03:26:33;100467.41;;;24.34;53.81
17593;BME280;8915;51.760;14.300;2023-07-16T03:28:59;100477.84;;;24.32;53.04
17593;BME280;8915;51.760;14.300;2023-07-16T03:31:28;100495.41;;;24.24;55.41
17593;BME280;8915;51.760;14.300;2023-07-16T03:33:55;100494.84;;;24.13;53.89
17593;BME280;8915;51.760;14.300;2023-07-16T03:36:24;100524.28;;;24.07;56.74
17593;BME280;8915;51.760;14.300;2023-07-16T03:38:50;100534.53;;;23.96;57.61
17593;BME280;8915;51.760;14.300;2023-07-16T03:41:17;100543.19;;;23.84;57.61
17593;BME280;8915;51.760;14.300;2023-07-16T03:43:44;100542.31;;;23.71;60.17
17593;BME280;8915;51.760;14.300;2023-07-16T03:46:20;100564.97;;;23.54;61.29
17593;BME280;8915;51.760;14.300;2023-07-16T03:48:47;100564.19;;;23.53;61.86
17593;BME280;8915;51.760;14.300;2023-07-16T03:51:14;100538.06;;;23.50;60.02
17593;BME280;8915;51.760;14.300;2023-07-16T03:53:42;100538.97;;;23.44;61.46
17593;BME280;8915;51.760;14.300;2023-07-16T03:56:08;100554.19;;;23.31;63.46
17593;BME280;8915;51.760;14.300;2023-07-16T03:58:35;100562.88;;;23.19;63.48
17593;BME280;8915;51.760;14.300;2023-07-16T04:01:04;100562.69;;;23.06;64.75
17593;BME280;8915;51.760;14.300;2023-07-16T04:03:30;100559.81;;;22.94;64.90
17593;BME280;8915;51.760;14.300;2023-07-16T04:06:02;100569.19;;;22.82;66.04
17593;BME280;8915;51.760;14.300;2023-07-16T04:08:29;100571.16;;;22.82;65.56
17593;BME280;8915;51.760;14.300;2023-07-16T04:10:55;100584.69;;;22.75;66.14
17593;BME280;8915;51.760;14.300;2023-07-16T04:13:22;100605.22;;;22.65;67.54
17593;BME280;8915;51.760;14.300;2023-07-16T04:15:48;100607.69;;;22.53;67.42
17593;BME280;8915;51.760;14.300;2023-07-16T04:18:15;100595.88;;;22.47;67.62
17593;BME280;8915;51.760;14.300;2023-07-16T04:20:41;100585.19;;;22.36;69.56
17593;BME280;8915;51.760;14.300;2023-07-16T04:23:09;100589.56;;;22.27;69.76
17593;BME280;8915;51.760;14.300;2023-07-16T04:25:35;100585.34;;;22.26;69.17
17593;BME280;8915;51.760;14.300;2023-07-16T04:28:02;100600.03;;;22.21;68.97
17593;BME280;8915;51.760;14.300;2023-07-16T04:30:29;100625.03;;;22.18;69.40
17593;BME280;8915;51.760;14.300;2023-07-16T04:32:55;100608.88;;;22.18;69.62
17593;BME280;8915;51.760;14.300;2023-07-16T04:35:22;100608.53;;;22.16;69.42
17593;BME280;8915;51.760;14.300;2023-07-16T04:37:48;100593.97;;;22.14;69.13
17593;BME280;8915;51.760;14.300;2023-07-16T04:40:16;100579.41;;;22.08;70.30
17593;BME280;8915;51.760;14.300;2023-07-16T04:42:42;100565.97;;;22.08;70.42
17593;BME280;8915;51.760;14.300;2023-07-16T04:45:08;100551.38;;;22.05;70.28
17593;BME280;8915;51.760;14.300;2023-07-16T04:47:35;100516.44;;;22.05;68.97
17593;BME280;8915;51.760;14.300;2023-07-16T04:50:01;100518.38;;;22.05;68.98
17593;BME280;8915;51.760;14.300;2023-07-16T04:52:27;100522.25;;;22.04;70.08
17593;BME280;8915;51.760;14.300;2023-07-16T04:54:54;100500.34;;;22.02;69.52
17593;BME280;8915;51.760;14.300;2023-07-16T04:57:21;100515.31;;;22.03;70.80
17593;BME280;8915;51.760;14.300;2023-07-16T04:59:48;100506.50;;;22.02;70.32
17593;BME280;8915;51.760;14.300;2023-07-16T05:02:14;100504.19;;;22.01;71.07
17593;BME280;8915;51.760;14.300;2023-07-16T05:04:42;100505.72;;;22.02;70.47
17593;BME280;8915;51.760;14.300;2023-07-16T05:07:12;100494.97;;;22.02;70.52
17593;BME280;8915;51.760;14.300;2023-07-16T05:09:39;100503.75;;;22.06;70.07
17593;BME280;8915;51.760;14.300;2023-07-16T05:12:06;100498.78;;;22.04;72.19
17593;BME280;8915;51.760;14.300;2023-07-16T05:14:43;100496.09;;;22.04;71.93
17593;BME280;8915;51.760;14.300;2023-07-16T05:17:09;100484.88;;;22.09;71.27
17593;BME280;8915;51.760;14.300;2023-07-16T05:19:35;100472.16;;;22.13;70.64
17593;BME280;8915;51.760;14.300;2023-07-16T05:22:02;100487.06;;;22.18;71.84
17593;BME280;8915;51.760;14.300;2023-07-16T05:24:28;100495.84;;;22.22;72.68
17593;BME280;8915;51.760;14.300;2023-07-16T05:26:55;100498.50;;;22.25;73.01
17593;BME280;8915;51.760;14.300;2023-07-16T05:29:21;100501.19;;;22.25;73.37
17593;BME280;8915;51.760;14.300;2023-07-16T05:31:49;100510.31;;;22.31;72.53
17593;BME280;8915;51.760;14.300;2023-07-16T05:34:15;100514.13;;;22.34;72.64
17593;BME280;8915;51.760;14.300;2023-07-16T05:36:42;100509.06;;;22.39;72.73
17593;BME280;8915;51.760;14.300;2023-07-16T05:39:09;100531.72;;;22.42;72.72
17593;BME280;8915;51.760;14.300;2023-07-16T05:41:38;100544.81;;;22.40;72.82
17593;BME280;8915;51.760;14.300;2023-07-16T05:44:04;100551.31;;;22.42;73.01
17593;BME280;8915;51.760;14.300;2023-07-16T05:46:31;100544.38;;;22.41;73.06
17593;BME280;8915;51.760;14.300;2023-07-16T05:48:59;100565.16;;;22.44;72.23
17593;BME280;8915;51.760;14.300;2023-07-16T05:51:25;100580.50;;;22.48;72.64
17593;BME280;8915;51.760;14.300;2023-07-16T05:53:51;100585.00;;;22.54;72.18
17593;BME280;8915;51.760;14.300;2023-07-16T05:56:18;100592.69;;;22.55;72.86
17593;BME280;8915;51.760;14.300;2023-07-16T05:58:44;100604.56;;;22.58;72.48
17593;BME280;8915;51.760;14.300;2023-07-16T06:01:11;100648.34;;;22.62;73.88
17593;BME280;8915;51.760;14.300;2023-07-16T06:03:37;100633.25;;;22.68;73.05
17593;BME280;8915;51.760;14.300;2023-07-16T06:06:05;100642.47;;;22.70;72.77
17593;BME280;8915;51.760;14.300;2023-07-16T06:08:31;100647.78;;;22.74;73.27
17593;BME280;8915;51.760;14.300;2023-07-16T06:10:57;100643.13;;;22.78;73.10
17593;BME280;8915;51.760;14.300;2023-07-16T06:13:24;100655.06;;;22.77;73.53
17593;BME280;8915;51.760;14.300;2023-07-16T06:15:50;100651.66;;;22.73;73.35
17593;BME280;8915;51.760;14.300;2023-07-16T06:18:17;100660.06;;;22.78;73.09
17593;BME280;8915;51.760;14.300;2023-07-16T06:20:43;100644.59;;;22.82;72.89
17593;BME280;8915;51.760;14.300;2023-07-16T06:23:11;100651.09;;;22.85;73.04
17593;BME280;8915;51.760;14.300;2023-07-16T06:25:38;100641.50;;;22.84;72.61
17593;BME280;8915;51.760;14.300;2023-07-16T06:28:05;100647.66;;;22.84;72.88
17593;BME280;8915;51.760;14.300;2023-07-16T06:30:32;100654.13;;;22.90;72.29
17593;BME280;8915;51.760;14.300;2023-07-16T06:32:59;100660.22;;;22.94;72.46
17593;BME280;8915;51.760;14.300;2023-07-16T06:35:25;100667.06;;;22.99;72.80
17593;BME280;8915;51.760;14.300;2023-07-16T06:37:52;100660.50;;;23.00;72.50
17593;BME280;8915;51.760;14.300;2023-07-16T06:40:20;100675.88;;;23.03;72.11
17593;BME280;8915;51.760;14.300;2023-07-16T06:42:46;100685.34;;;23.11;72.86
17593;BME280;8915;51.760;14.300;2023-07-16T06:45:12;100682.63;;;23.18;71.76
17593;BME280;8915;51.760;14.300;2023-07-16T06:47:39;100689.84;;;23.21;72.05
17593;BME280;8915;51.760;14.300;2023-07-16T06:50:06;100683.72;;;23.21;71.50
17593;BME280;8915;51.760;14.300;2023-07-16T06:52:32;100692.16;;;23.23;71.40
17593;BME280;8915;51.760;14.300;2023-07-16T06:54:59;100696.31;;;23.27;71.24
17593;BME280;8915;51.760;14.300;2023-07-16T06:57:26;100698.97;;;23.31;71.44
17593;BME280;8915;51.760;14.300;2023-07-16T06:59:52;100692.66;;;23.41;71.47
17593;BME280;8915;51.760;14.300;2023-07-16T07:02:19;100684.34;;;23.54;72.53
17593;BME280;8915;51.760;14.300;2023-07-16T07:04:46;100686.00;;;23.72;71.88
17593;BME280;8915;51.760;14.300;2023-07-16T07:07:12;100689.94;;;23.90;71.56
17593;BME280;8915;51.760;14.300;2023-07-16T07:09:39;100684.97;;;24.08;70.32
17593;BME280;8915;51.760;14.300;2023-07-16T07:12:06;100683.06;;;24.28;70.32
17593;BME280;8915;51.760;14.300;2023-07-16T07:14:34;100683.53;;;24.42;69.74
17593;BME280;8915;51.760;14.300;2023-07-16T07:17:00;100690.72;;;24.49;69.19
17593;BME280;8915;51.760;14.300;2023-07-16T07:19:26;100683.19;;;24.60;68.38
17593;BME280;8915;51.760;14.300;2023-07-16T07:21:53;100696.56;;;24.67;68.21
17593;BME280;8915;51.760;14.300;2023-07-16T07:24:19;100687.47;;;24.77;67.84
17593;BME280;8915;51.760;14.300;2023-07-16T07:26:45;100692.13;;;24.77;67.62
17593;BME280;8915;51.760;14.300;2023-07-16T07:29:12;100695.06;;;24.82;67.53
17593;BME280;8915;51.760;14.300;2023-07-16T07:31:40;100694.75;;;24.80;66.95
17593;BME280;8915;51.760;14.300;2023-07-16T07:34:06;100695.03;;;24.86;66.84
17593;BME280;8915;51.760;14.300;2023-07-16T07:36:32;100699.94;;;24.91;66.56
17593;BME280;8915;51.760;14.300;2023-07-16T07:38:59;100701.44;;;24.92;67.09
17593;BME280;8915;51.760;14.300;2023-07-16T07:41:25;100701.38;;;24.95;67.20
17593;BME280;8915;51.760;14.300;2023-07-16T07:43:51;100694.59;;;25.03;66.79
17593;BME280;8915;51.760;14.300;2023-07-16T07:46:18;100703.94;;;24.43;69.51
17593;BME280;8915;51.760;14.300;2023-07-16T07:48:46;100703.53;;;24.45;69.17
17593;BME280;8915;51.760;14.300;2023-07-16T07:51:12;100700.28;;;24.53;69.16
17593;BME280;8915;51.760;14.300;2023-07-16T07:53:38;100705.22;;;24.59;68.49
17593;BME280;8915;51.760;14.300;2023-07-16T07:56:05;100701.63;;;24.65;69.06
17593;BME280;8915;51.760;14.300;2023-07-16T07:58:31;100701.47;;;24.72;69.57
17593;BME280;8915;51.760;14.300;2023-07-16T08:01:03;100698.97;;;24.81;67.20
17593;BME280;8915;51.760;14.300;2023-07-16T08:03:30;100700.34;;;24.89;66.63
17593;BME280;8915;51.760;14.300;2023-07-16T08:05:58;100703.56;;;25.00;66.50
17593;BME280;8915;51.760;14.300;2023-07-16T08:08:24;100698.28;;;25.13;67.43
17593;BME280;8915;51.760;14.300;2023-07-16T08:10:50;100706.91;;;25.24;65.90
17593;BME280;8915;51.760;14.300;2023-07-16T08:13:17;100700.84;;;25.36;63.65
17593;BME280;8915;51.760;14.300;2023-07-16T08:15:43;100701.34;;;25.47;65.09
17593;BME280;8915;51.760;14.300;2023-07-16T08:18:09;100702.28;;;25.56;64.44
17593;BME280;8915;51.760;14.300;2023-07-16T08:20:37;100706.19;;;25.55;63.22
17593;BME280;8915;51.760;14.300;2023-07-16T08:23:05;100711.31;;;25.66;63.49
17593;BME280;8915;51.760;14.300;2023-07-16T08:25:31;100714.94;;;25.75;62.32
17593;BME280;8915;51.760;14.300;2023-07-16T08:27:57;100719.00;;;25.83;61.65
17593;BME280;8915;51.760;14.300;2023-07-16T08:30:24;100728.47;;;25.91;62.26
17593;BME280;8915;51.760;14.300;2023-07-16T08:32:50;100717.06;;;26.00;60.30
17593;BME280;8915;51.760;14.300;2023-07-16T08:35:17;100722.81;;;26.02;58.23
17593;BME280;8915;51.760;14.300;2023-07-16T08:37:45;100725.88;;;26.16;56.52
17593;BME280;8915;51.760;14.300;2023-07-16T08:40:13;100733.97;;;26.32;57.56
17593;BME280;8915;51.760;14.300;2023-07-16T08:42:40;100743.00;;;26.42;55.16
17593;BME280;8915;51.760;14.300;2023-07-16T08:45:10;100745.00;;;26.54;55.91
17593;BME280;8915;51.760;14.300;2023-07-16T08:47:37;100748.44;;;26.70;52.88
17593;BME280;8915;51.760;14.300;2023-07-16T08:50:04;100742.69;;;26.81;54.25
17593;BME280;8915;51.760;14.300;2023-07-16T08:52:31;100741.09;;;26.96;52.03
17593;BME280;8915;51.760;14.300;2023-07-16T08:54:57;100752.72;;;27.09;51.91
17593;BME280;8915;51.760;14.300;2023-07-16T08:57:25;100749.38;;;27.17;55.97
17593;BME280;8915;51.760;14.300;2023-07-16T08:59:53;100729.88;;;27.35;51.39
17593;BME280;8915;51.760;14.300;2023-07-16T09:02:21;100740.25;;;27.49;49.70
17593;BME280;8915;51.760;14.300;2023-07-16T09:04:48;100744.81;;;27.52;48.89
17593;BME280;8915;51.760;14.300;2023-07-16T09:07:16;100746.31;;;27.53;50.69
17593;BME280;8915;51.760;14.300;2023-07-16T09:09:42;100740.28;;;27.36;45.79
17593;BME280;8915;51.760;14.300;2023-07-16T09:12:11;100746.34;;;27.40;48.94
17593;BME280;8915;51.760;14.300;2023-07-16T09:14:41;100744.59;;;27.46;48.50
17593;BME280;8915;51.760;14.300;2023-07-16T09:17:07;100744.69;;;27.43;47.22
17593;BME280;8915;51.760;14.300;2023-07-16T09:19:34;100743.50;;;27.56;50.19
17593;BME280;8915;51.760;14.300;2023-07-16T09:22:00;100750.78;;;27.59;46.34
17593;BME280;8915;51.760;14.300;2023-07-16T09:24:28;100752.09;;;27.55;49.14
17593;BME280;8915;51.760;14.300;2023-07-16T09:26:55;100747.63;;;27.61;45.44
17593;BME280;8915;51.760;14.300;2023-07-16T09:29:22;100745.09;;;27.66;45.70
17593;BME280;8915;51.760;14.300;2023-07-16T09:31:54;100750.34;;;27.61;46.99
17593;BME280;8915;51.760;14.300;2023-07-16T09:34:20;100748.72;;;27.51;48.94
17593;BME280;8915;51.760;14.300;2023-07-16T09:36:47;100749.91;;;27.50;45.17
17593;BME280;8915;51.760;14.300;2023-07-16T09:39:15;100750.00;;;27.59;46.25
17593;BME280;8915;51.760;14.300;2023-07-16T09:41:42;100744.88;;;27.73;44.66
17593;BME280;8915;51.760;14.300;2023-07-16T09:44:09;100745.19;;;27.75;44.30
17593;BME280;8915;51.760;14.300;2023-07-16T09:46:36;100748.78;;;27.85;45.91
17593;BME280;8915;51.760;14.300;2023-07-16T09:49:04;100748.75;;;27.97;46.41
17593;BME280;8915;51.760;14.300;2023-07-16T09:51:31;100765.44;;;28.08;45.38
17593;BME280;8915;51.760;14.300;2023-07-16T09:53:59;100757.63;;;28.10;45.22
17593;BME280;8915;51.760;14.300;2023-07-16T09:56:32;100771.84;;;28.14;47.57
17593;BME280;8915;51.760;14.300;2023-07-16T09:59:00;100766.22;;;28.09;43.77
17593;BME280;8915;51.760;14.300;2023-07-16T10:01:28;100770.88;;;28.08;44.84
17593;BME280;8915;51.760;14.300;2023-07-16T10:03:55;100760.59;;;28.25;42.66
17593;BME280;8915;51.760;14.300;2023-07-16T10:06:23;100760.88;;;28.39;43.59
17593;BME280;8915;51.760;14.300;2023-07-16T10:08:49;100767.31;;;28.45;43.92
17593;BME280;8915;51.760;14.300;2023-07-16T10:11:16;100769.13;;;28.48;41.52
17593;BME280;8915;51.760;14.300;2023-07-16T10:13:43;100751.03;;;28.54;42.74
17593;BME280;8915;51.760;14.300;2023-07-16T10:16:19;100770.13;;;28.63;41.73
17593;BME280;8915;51.760;14.300;2023-07-16T10:18:50;100766.91;;;28.77;42.42
17593;BME280;8915;51.760;14.300;2023-07-16T10:21:24;100768.72;;;28.80;41.64
17593;BME280;8915;51.760;14.300;2023-07-16T10:23:57;100768.63;;;28.84;47.18
17593;BME280;8915;51.760;14.300;2023-07-16T10:26:27;100764.94;;;28.99;40.98
17593;BME280;8915;51.760;14.300;2023-07-16T10:28:53;100760.91;;;29.13;39.68
17593;BME280;8915;51.760;14.300;2023-07-16T10:31:21;100772.31;;;29.29;41.07
17593;BME280;8915;51.760;14.300;2023-07-16T10:33:58;100770.81;;;29.37;40.17
17593;BME280;8915;51.760;14.300;2023-07-16T10:36:26;100791.13;;;29.45;41.65
17593;BME280;8915;51.760;14.300;2023-07-16T10:38:52;100788.09;;;29.43;39.13
17593;BME280;8915;51.760;14.300;2023-07-16T10:41:18;100771.41;;;29.32;41.61
17593;BME280;8915;51.760;14.300;2023-07-16T10:43:45;100792.03;;;29.12;39.69
17593;BME280;8915;51.760;14.300;2023-07-16T10:46:11;100799.91;;;29.19;40.64
17593;BME280;8915;51.760;14.300;2023-07-16T10:48:38;100805.19;;;29.13;36.81
17593;BME280;8915;51.760;14.300;2023-07-16T10:51:14;100801.13;;;29.18;40.45
17593;BME280;8915;51.760;14.300;2023-07-16T10:53:42;100795.06;;;29.14;36.42
17593;BME280;8915;51.760;14.300;2023-07-16T10:56:09;100797.91;;;29.10;34.76
17593;BME280;8915;51.760;14.300;2023-07-16T10:58:36;100784.03;;;29.08;38.46
17593;BME280;8915;51.760;14.300;2023-07-16T11:01:03;100782.56;;;28.95;35.98
17593;BME280;8915;51.760;14.300;2023-07-16T11:03:29;100779.31;;;29.00;36.19
17593;BME280;8915;51.760;14.300;2023-07-16T11:05:56;100788.84;;;29.04;35.58
17593;BME280;8915;51.760;14.300;2023-07-16T11:08:22;100790.09;;;29.12;42.36
17593;BME280;8915;51.760;14.300;2023-07-16T11:10:54;100801.00;;;29.21;39.89
17593;BME280;8915;51.760;14.300;2023-07-16T11:13:25;100795.59;;;29.30;37.50
17593;BME280;8915;51.760;14.300;2023-07-16T11:15:51;100795.66;;;29.39;36.15
17593;BME280;8915;51.760;14.300;2023-07-16T11:18:18;100785.88;;;29.51;36.71
17593;BME280;8915;51.760;14.300;2023-07-16T11:20:44;100793.91;;;29.63;35.71
17593;BME280;8915;51.760;14.300;2023-07-16T11:23:11;100795.34;;;29.77;38.04
17593;BME280;8915;51.760;14.300;2023-07-16T11:25:37;100803.94;;;29.84;36.71
17593;BME280;8915;51.760;14.300;2023-07-16T11:28:05;100804.91;;;29.90;33.40
17593;BME280;8915;51.760;14.300;2023-07-16T11:30:31;100806.88;;;29.99;34.36
17593;BME280;8915;51.760;14.300;2023-07-16T11:32:58;100799.91;;;29.98;35.51
17593;BME280;8915;51.760;14.300;2023-07-16T11:35:25;100788.41;;;30.03;35.81
17593;BME280;8915;51.760;14.300;2023-07-16T11:37:52;100800.66;;;29.98;38.73
17593;BME280;8915;51.760;14.300;2023-07-16T11:40:19;100810.81;;;30.07;34.12
17593;BME280;8915;51.760;14.300;2023-07-16T11:42:46;100807.50;;;30.12;37.61
17593;BME280;8915;51.760;14.300;2023-07-16T11:45:18;100797.22;;;30.16;39.72
17593;BME280;8915;51.760;14.300;2023-07-16T11:47:45;100802.69;;;30.16;32.97
17593;BME280;8915;51.760;14.300;2023-07-16T11:50:11;100808.13;;;30.16;32.46
17593;BME280;8915;51.760;14.300;2023-07-16T11:52:38;100799.97;;;30.25;35.49
17593;BME280;8915;51.760;14.300;2023-07-16T11:55:05;100809.81;;;30.22;33.73
17593;BME280;8915;51.760;14.300;2023-07-16T11:57:32;100791.78;;;30.16;31.97
17593;BME280;8915;51.760;14.300;2023-07-16T11:59:58;100795.66;;;30.06;32.86
17593;BME280;8915;51.760;14.300;2023-07-16T12:02:26;100801.56;;;29.86;32.81
17593;BME280;8915;51.760;14.300;2023-07-16T12:04:54;100804.44;;;29.52;31.08
17593;BME280;8915;51.760;14.300;2023-07-16T12:07:31;100798.53;;;29.45;33.30
17593;BME280;8915;51.760;14.300;2023-07-16T12:09:59;100793.38;;;29.38;33.12
17593;BME280;8915;51.760;14.300;2023-07-16T12:12:25;100805.63;;;29.12;31.65
17593;BME280;8915;51.760;14.300;2023-07-16T12:14:51;100801.22;;;29.05;34.79
17593;BME280;8915;51.760;14.300;2023-07-16T12:17:18;100793.13;;;29.14;34.75
17593;BME280;8915;51.760;14.300;2023-07-16T12:19:45;100797.06;;;29.22;36.43
17593;BME280;8915;51.760;14.300;2023-07-16T12:22:13;100792.09;;;29.30;34.40
17593;BME280;8915;51.760;14.300;2023-07-16T12:24:40;100788.47;;;29.24;34.56
17593;BME280;8915;51.760;14.300;2023-07-16T12:27:06;100795.53;;;29.12;33.07
17593;BME280;8915;51.760;14.300;2023-07-16T12:29:33;100787.53;;;29.18;33.04
17593;BME280;8915;51.760;14.300;2023-07-16T12:31:59;100797.69;;;29.26;32.57
17593;BME280;8915;51.760;14.300;2023-07-16T12:34:26;100788.81;;;29.35;34.84
17593;BME280;8915;51.760;14.300;2023-07-16T12:36:54;100792.34;;;29.44;32.97
17593;BME280;8915;51.760;14.300;2023-07-16T12:39:21;100803.94;;;29.36;32.99
17593;BME280;8915;51.760;14.300;2023-07-16T12:41:47;100800.91;;;29.34;33.24
17593;BME280;8915;51.760;14.300;2023-07-16T12:44:14;100801.47;;;29.29;32.98
17593;BME280;8915;51.760;14.300;2023-07-16T12:46:40;100790.59;;;29.29;33.07
17593;BME280;8915;51.760;14.300;2023-07-16T12:49:06;100792.28;;;29.35;34.10
17593;BME280;8915;51.760;14.300;2023-07-16T12:51:33;100799.72;;;29.44;33.24
17593;BME280;8915;51.760;14.300;2023-07-16T12:54:00;100790.41;;;29.54;33.94